createdAt,value
2018-09-28T00:00:40.346Z,70.60
2018-09-28T00:03:08.593Z,70.50
2018-09-28T00:05:36.892Z,70.50
2018-09-28T00:08:05.158Z,71.30
2018-09-28T00:10:33.372Z,70.50
2018-09-28T00:13:01.680Z,70.50
2018-09-28T00:15:29.920Z,70.50
2018-09-28T00:17:58.163Z,70.70
2018-09-28T00:20:27.387Z,70.80
2018-09-28T00:22:55.730Z,71.00
2018-09-28T00:25:23.996Z,70.90
2018-09-28T00:27:52.249Z,71.00
2018-09-28T00:30:20.610Z,71.00
2018-09-28T00:32:48.839Z,70.90
2018-09-28T00:35:17.090Z,70.90
2018-09-28T00:37:45.778Z,71.00
2018-09-28T00:40:14.030Z,71.10
2018-09-28T00:42:42.286Z,70.90
2018-09-28T00:45:10.661Z,71.00
2018-09-28T00:47:38.873Z,71.10
2018-09-28T00:50:07.323Z,71.10
2018-09-28T00:52:35.715Z,71.30
2018-09-28T00:55:04.133Z,71.30
2018-09-28T00:57:32.423Z,71.40
2018-09-28T01:00:00.738Z,71.30
2018-09-28T01:02:29.082Z,71.40
2018-09-28T01:04:57.383Z,71.40
2018-09-28T01:07:25.607Z,71.50
2018-09-28T01:09:53.808Z,71.50
2018-09-28T01:12:22.169Z,71.50
2018-09-28T01:14:50.410Z,71.70
2018-09-28T01:17:18.649Z,71.80
2018-09-28T01:19:47.013Z,71.80
2018-09-28T01:22:15.276Z,71.80
2018-09-28T01:24:43.578Z,71.70
2018-09-28T01:27:15.516Z,71.60
2018-09-28T01:29:43.745Z,71.30
2018-09-28T01:32:13.264Z,71.50
2018-09-28T01:34:41.528Z,72.10
2018-09-28T01:37:09.886Z,71.50
2018-09-28T01:39:38.269Z,71.40
2018-09-28T01:42:06.669Z,71.40
2018-09-28T01:44:34.948Z,71.60
2018-09-28T01:47:03.279Z,71.70
2018-09-28T01:49:31.560Z,71.80
2018-09-28T01:52:00.430Z,71.40
2018-09-28T01:54:28.824Z,71.90
2018-09-28T01:56:57.099Z,71.90
2018-09-28T01:59:25.677Z,72.60
2018-09-28T02:01:53.996Z,71.90
2018-09-28T02:04:22.297Z,72.20
2018-09-28T02:06:50.608Z,72.20
2018-09-28T02:09:18.926Z,72.30
2018-09-28T02:11:47.181Z,72.40
2018-09-28T02:14:15.551Z,72.40
2018-09-28T02:16:43.826Z,72.40
2018-09-28T02:19:12.148Z,72.50
2018-09-28T02:21:40.424Z,72.50
2018-09-28T02:24:08.764Z,72.60
2018-09-28T02:26:59.038Z,72.50
2018-09-28T02:29:27.412Z,72.70
2018-09-28T02:32:02.170Z,72.60
2018-09-28T02:34:30.480Z,72.30
2018-09-28T02:36:58.810Z,72.30
2018-09-28T02:39:28.123Z,72.20
2018-09-28T02:41:56.468Z,72.10
2018-09-28T02:44:24.925Z,72.20
2018-09-28T02:46:58.248Z,72.30
2018-09-28T02:49:26.632Z,72.40
2018-09-28T02:51:54.907Z,72.40
2018-09-28T02:54:23.743Z,72.50
2018-09-28T02:57:04.234Z,72.50
2018-09-28T02:59:32.566Z,72.60
2018-09-28T03:02:00.853Z,72.60
2018-09-28T03:04:29.112Z,72.70
2018-09-28T03:06:57.418Z,72.60
2018-09-28T03:09:25.690Z,72.70
2018-09-28T03:11:53.979Z,72.80
2018-09-28T03:14:22.313Z,72.80
2018-09-28T03:16:50.633Z,72.80
2018-09-28T03:19:18.931Z,72.70
2018-09-28T03:21:48.404Z,72.80
2018-09-28T03:24:16.712Z,72.90
2018-09-28T03:26:44.997Z,72.90
2018-09-28T03:29:13.337Z,73.20
2018-09-28T03:31:41.650Z,73.10
2018-09-28T03:34:09.872Z,73.20
2018-09-28T03:36:38.309Z,73.20
2018-09-28T03:39:07.235Z,73.20
2018-09-28T03:41:41.421Z,73.40
2018-09-28T03:44:09.663Z,73.30
2018-09-28T03:46:38.005Z,73.40
2018-09-28T03:49:06.232Z,73.30
2018-09-28T03:51:34.536Z,73.40
2018-09-28T03:54:03.885Z,73.40
2018-09-28T03:56:32.308Z,73.50
2018-09-28T03:59:00.678Z,73.40
2018-09-28T04:01:29.160Z,73.50
2018-09-28T04:03:57.595Z,73.40
2018-09-28T04:06:27.856Z,73.50
2018-09-28T04:08:56.187Z,73.60
2018-09-28T04:11:24.504Z,73.50
2018-09-28T04:13:52.845Z,74.40
2018-09-28T04:16:21.192Z,73.50
2018-09-28T04:18:49.508Z,73.60
2018-09-28T04:21:18.819Z,73.60
2018-09-28T04:23:47.169Z,73.40
2018-09-28T04:26:15.557Z,73.30
2018-09-28T04:28:43.868Z,73.50
2018-09-28T04:31:12.193Z,73.50
2018-09-28T04:33:40.593Z,73.50
2018-09-28T04:36:09.208Z,73.50
2018-09-28T04:38:37.588Z,73.70
2018-09-28T04:41:06.005Z,73.70
2018-09-28T04:43:34.374Z,73.70
2018-09-28T04:46:02.753Z,73.60
2018-09-28T04:48:31.096Z,73.70
2018-09-28T04:51:00.183Z,73.60
2018-09-28T04:53:28.814Z,73.60
2018-09-28T04:55:57.161Z,73.70
2018-09-28T04:58:26.076Z,73.60
2018-09-28T05:00:54.364Z,73.70
2018-09-28T05:03:23.733Z,74.00
2018-09-28T05:05:52.038Z,74.10
2018-09-28T05:08:20.555Z,74.20
2018-09-28T05:10:48.934Z,74.30
2018-09-28T05:13:17.381Z,74.20
2018-09-28T05:15:45.886Z,74.40
2018-09-28T05:18:14.245Z,74.50
2018-09-28T05:20:42.551Z,74.50
2018-09-28T05:23:10.849Z,74.50
2018-09-28T05:31:24.562Z,74.70
2018-09-28T05:33:52.923Z,74.70
2018-09-28T05:36:21.482Z,74.70
2018-09-28T05:38:49.834Z,74.80
2018-09-28T05:41:18.270Z,74.80
2018-09-28T05:43:46.590Z,74.40
2018-09-28T05:46:14.876Z,74.10
2018-09-28T05:48:43.147Z,74.20
2018-09-28T05:51:11.819Z,74.30
2018-09-28T05:53:41.260Z,74.30
2018-09-28T05:56:10.172Z,74.40
2018-09-28T05:58:44.292Z,74.40
2018-09-28T06:01:18.150Z,74.50
2018-09-28T06:03:51.851Z,74.60
2018-09-28T06:06:20.133Z,74.50
2018-09-28T06:08:48.441Z,74.60
2018-09-28T06:11:16.852Z,74.40
2018-09-28T06:13:45.125Z,74.60
2018-09-28T06:16:15.790Z,74.70
2018-09-28T06:18:44.061Z,74.90
2018-09-28T06:21:12.424Z,75.10
2018-09-28T06:23:41.029Z,75.40
2018-09-28T06:26:09.389Z,75.60
2018-09-28T06:28:37.772Z,75.60
2018-09-28T06:31:06.303Z,75.50
2018-09-28T06:33:34.571Z,75.60
2018-09-28T06:36:03.165Z,75.50
2018-09-28T06:38:31.371Z,76.20
2018-09-28T06:40:59.778Z,75.60
2018-09-28T06:43:32.039Z,75.60
2018-09-28T06:46:00.746Z,75.60
2018-09-28T06:48:29.101Z,75.50
2018-09-28T06:50:57.415Z,75.60
2018-09-28T06:53:25.834Z,75.60
2018-09-28T06:55:54.143Z,75.60
2018-09-28T06:58:22.542Z,75.60
2018-09-28T07:00:50.973Z,75.60
2018-09-28T07:03:19.343Z,75.60
2018-09-28T07:05:47.849Z,75.80
2018-09-28T07:08:16.298Z,75.80
2018-09-28T07:10:44.881Z,76.00
2018-09-28T07:13:14.304Z,76.00
2018-09-28T07:15:42.631Z,76.10
2018-09-28T07:18:11.020Z,76.10
2018-09-28T07:20:39.372Z,76.30
2018-09-28T07:23:07.756Z,76.20
2018-09-28T07:25:36.083Z,77.00
2018-09-28T07:28:04.528Z,76.30
2018-09-28T07:30:32.815Z,76.30
2018-09-28T07:33:01.275Z,76.50
2018-09-28T07:35:29.542Z,76.50
2018-09-28T07:37:57.827Z,76.30
2018-09-28T07:40:26.198Z,76.40
2018-09-28T07:42:54.533Z,76.50
2018-09-28T07:45:22.901Z,76.60
2018-09-28T07:47:51.711Z,76.70
2018-09-28T07:50:19.993Z,76.80
2018-09-28T07:52:48.219Z,76.90
2018-09-28T07:55:16.713Z,77.00
2018-09-28T07:57:45.030Z,77.00
2018-09-28T08:00:13.393Z,77.10
2018-09-28T08:02:41.750Z,77.00
2018-09-28T08:05:10.216Z,77.00
2018-09-28T08:07:38.465Z,76.90
2018-09-28T08:10:06.875Z,76.90
2018-09-28T08:12:35.081Z,76.90
2018-09-28T08:15:03.314Z,77.00
2018-09-28T08:17:32.584Z,77.10
2018-09-28T08:20:00.841Z,77.40
2018-09-28T08:22:29.024Z,77.50
2018-09-28T08:24:57.531Z,77.50
2018-09-28T08:27:25.817Z,77.60
2018-09-28T08:29:54.014Z,77.70
2018-09-28T08:32:23.277Z,77.70
2018-09-28T08:34:51.550Z,77.70
2018-09-28T08:37:19.796Z,78.10
2018-09-28T08:39:48.007Z,78.10
2018-09-28T08:42:16.366Z,78.10
2018-09-28T08:44:45.690Z,78.20
2018-09-28T08:47:13.907Z,79.00
2018-09-28T08:49:42.129Z,78.50
2018-09-28T08:52:10.321Z,78.60
2018-09-28T08:54:38.635Z,78.60
2018-09-28T08:57:17.841Z,78.70
2018-09-28T08:59:46.087Z,78.80
2018-09-28T09:02:14.362Z,78.70
2018-09-28T09:04:42.581Z,78.30
2018-09-28T09:07:10.804Z,78.30
2018-09-28T09:09:38.975Z,78.30
2018-09-28T09:12:07.293Z,78.40
2018-09-28T09:14:35.486Z,78.60
2018-09-28T09:17:03.896Z,78.60
2018-09-28T09:19:32.092Z,78.80
2018-09-28T09:22:00.332Z,78.90
2018-09-28T09:24:46.204Z,77.70
2018-09-28T09:27:14.483Z,77.70
2018-09-28T09:29:42.674Z,77.70
2018-09-28T09:32:16.965Z,78.20
2018-09-28T09:34:45.200Z,77.80
2018-09-28T09:37:13.471Z,77.90
2018-09-28T09:39:41.735Z,78.20
2018-09-28T09:42:09.940Z,78.60
2018-09-28T09:44:38.244Z,78.60
2018-09-28T09:47:06.466Z,78.40
2018-09-28T09:49:34.705Z,79.40
2018-09-28T09:52:02.944Z,78.60
2018-09-28T09:54:31.510Z,78.90
2018-09-28T09:56:59.908Z,78.60
2018-09-28T09:59:28.160Z,78.80
2018-09-28T10:02:01.805Z,79.90
2018-09-28T10:04:30.044Z,80.50
2018-09-28T10:06:58.245Z,79.90
2018-09-28T10:09:26.471Z,79.50
2018-09-28T10:11:54.673Z,80.00
2018-09-28T10:14:22.900Z,80.40
2018-09-28T10:16:51.286Z,80.90
2018-09-28T10:19:19.593Z,80.50
2018-09-28T10:21:47.729Z,80.70
2018-09-28T10:24:16.014Z,81.10
2018-09-28T10:26:44.219Z,80.40
2018-09-28T10:29:12.426Z,81.30
2018-09-28T10:31:40.677Z,80.80
2018-09-28T10:34:08.893Z,81.70
2018-09-28T10:36:37.229Z,81.30
2018-09-28T10:39:07.288Z,80.80
2018-09-28T10:41:35.441Z,80.90
2018-09-28T10:44:04.657Z,81.10
2018-09-28T10:46:32.913Z,81.40
2018-09-28T10:49:01.140Z,81.30
2018-09-28T10:51:29.599Z,81.40
2018-09-28T10:53:57.786Z,81.10
2018-09-28T10:56:26.225Z,81.50
2018-09-28T10:58:55.660Z,80.90
2018-09-28T11:01:23.797Z,80.90
2018-09-28T11:03:52.069Z,80.90
2018-09-28T11:06:24.063Z,80.70
2018-09-28T11:08:52.340Z,80.70
2018-09-28T11:11:20.474Z,80.30
2018-09-28T11:13:48.713Z,80.30
2018-09-28T11:16:17.008Z,80.10
2018-09-28T11:18:45.250Z,80.50
2018-09-28T11:21:13.414Z,80.60
2018-09-28T11:23:41.684Z,80.40
2018-09-28T11:26:09.917Z,80.20
2018-09-28T11:28:38.461Z,80.10
2018-09-28T11:31:06.658Z,80.50
2018-09-28T11:33:34.983Z,80.40
2018-09-28T11:36:03.156Z,80.60
2018-09-28T11:38:31.367Z,80.20
2018-09-28T11:40:59.555Z,80.50
2018-09-28T11:43:29.044Z,80.60
2018-09-28T11:45:57.272Z,80.50
2018-09-28T11:48:25.478Z,79.90
2018-09-28T11:50:53.784Z,79.90
2018-09-28T11:53:23.567Z,79.70
2018-09-28T11:55:51.779Z,79.30
2018-09-28T11:58:20.223Z,79.20
2018-09-28T12:00:48.494Z,79.00
2018-09-28T12:03:16.773Z,78.90
2018-09-28T12:05:44.940Z,78.60
2018-09-28T12:08:13.658Z,78.20
2018-09-28T12:10:41.943Z,77.90
2018-09-28T12:13:10.230Z,77.50
2018-09-28T12:15:38.526Z,77.50
2018-09-28T12:18:06.741Z,77.50
2018-09-28T12:20:36.299Z,77.20
2018-09-28T12:23:04.574Z,77.20
2018-09-28T12:25:32.891Z,76.60
2018-09-28T12:28:01.106Z,77.20
2018-09-28T12:30:29.725Z,77.10
2018-09-28T12:32:57.941Z,77.10
2018-09-28T12:35:26.313Z,77.10
2018-09-28T12:37:54.609Z,77.10
2018-09-28T12:40:22.864Z,77.00
2018-09-28T12:42:51.239Z,77.00
2018-09-28T12:45:19.524Z,77.00
2018-09-28T12:47:47.778Z,76.90
2018-09-28T12:50:16.203Z,76.70
2018-09-28T12:52:44.387Z,76.50
2018-09-28T12:55:12.592Z,76.70
2018-09-28T12:57:40.820Z,75.90
2018-09-28T13:00:16.511Z,75.90
2018-09-28T13:02:45.090Z,76.00
2018-09-28T13:05:13.272Z,75.60
2018-09-28T13:07:41.682Z,75.40
2018-09-28T13:10:09.891Z,75.50
2018-09-28T13:12:38.081Z,75.80
2018-09-28T13:15:07.914Z,75.50
2018-09-28T13:17:36.003Z,75.40
2018-09-28T13:20:04.216Z,75.10
2018-09-28T13:22:32.475Z,75.00
2018-09-28T13:25:00.690Z,75.40
2018-09-28T13:27:34.923Z,75.40
2018-09-28T13:30:03.135Z,75.40
2018-09-28T13:32:31.326Z,75.10
2018-09-28T13:34:59.616Z,74.90
2018-09-28T13:37:28.923Z,74.90
2018-09-28T13:39:57.134Z,75.00
2018-09-28T13:42:25.620Z,75.10
2018-09-28T13:44:53.722Z,75.30
2018-09-28T13:47:21.955Z,75.80
2018-09-28T13:49:50.163Z,75.00
2018-09-28T13:52:18.413Z,75.10
2018-09-28T13:54:46.770Z,75.20
2018-09-28T13:57:14.923Z,75.10
2018-09-28T13:59:43.226Z,75.30
2018-09-28T14:02:29.336Z,75.40
2018-09-28T14:04:57.503Z,75.40
2018-09-28T14:07:25.792Z,75.50
2018-09-28T14:09:54.056Z,75.50
2018-09-28T14:12:22.338Z,74.90
2018-09-28T14:14:50.489Z,75.40
2018-09-28T14:20:11.652Z,75.40
2018-09-28T14:22:40.065Z,75.20
2018-09-28T14:25:25.881Z,75.10
2018-09-28T14:27:54.215Z,75.00
2018-09-28T14:30:22.456Z,75.00
2018-09-28T14:32:50.732Z,75.00
2018-09-28T14:35:26.683Z,74.80
2018-09-28T14:37:54.874Z,74.80
2018-09-28T14:40:23.159Z,74.90
2018-09-28T14:42:51.451Z,74.70
2018-09-28T14:45:19.651Z,74.60
2018-09-28T14:47:47.877Z,74.60
2018-09-28T14:50:17.403Z,74.40
2018-09-28T14:52:47.737Z,74.40
2018-09-28T14:55:16.147Z,74.20
2018-09-28T14:57:44.351Z,74.00
2018-09-28T15:00:12.721Z,73.80
2018-09-28T15:02:41.033Z,73.40
2018-09-28T15:05:09.194Z,73.80
2018-09-28T15:07:37.497Z,73.30
2018-09-28T15:10:05.719Z,73.30
2018-09-28T15:12:33.903Z,73.40
2018-09-28T15:15:02.097Z,73.40
2018-09-28T15:17:30.640Z,73.70
2018-09-28T15:19:58.838Z,73.70
2018-09-28T15:22:27.020Z,73.90
2018-09-28T15:24:55.235Z,73.70
2018-09-28T15:27:23.490Z,73.60
2018-09-28T15:29:51.672Z,73.50
2018-09-28T15:32:19.866Z,73.30
2018-09-28T15:34:48.183Z,73.40
2018-09-28T15:37:16.536Z,73.40
2018-09-28T15:39:44.752Z,73.20
2018-09-28T15:42:13.047Z,73.10
2018-09-28T15:44:41.231Z,72.90
2018-09-28T15:47:09.513Z,72.80
2018-09-28T15:49:37.716Z,72.80
2018-09-28T15:52:05.989Z,72.40
2018-09-28T15:54:34.178Z,72.80
2018-09-28T15:57:02.567Z,72.90
2018-09-28T15:59:31.967Z,72.90
2018-09-28T16:02:00.175Z,72.40
2018-09-28T16:04:28.390Z,72.60
2018-09-28T16:06:56.597Z,72.50
2018-09-28T16:09:24.784Z,72.50
2018-09-28T16:11:52.983Z,72.40
2018-09-28T16:14:21.180Z,72.40
2018-09-28T16:16:49.394Z,72.60
2018-09-28T16:19:17.753Z,72.60
2018-09-28T16:21:45.949Z,72.60
2018-09-28T16:24:14.247Z,72.60
2018-09-28T16:26:42.479Z,72.50
2018-09-28T16:29:10.755Z,72.40
2018-09-28T16:31:38.932Z,72.40
2018-09-28T16:34:07.147Z,72.30
2018-09-28T16:36:35.338Z,72.30
2018-09-28T16:39:04.067Z,72.00
2018-09-28T16:41:32.299Z,72.00
2018-09-28T16:44:00.550Z,72.10
2018-09-28T16:46:28.798Z,71.00
2018-09-28T16:48:57.040Z,71.10
2018-09-28T16:51:25.303Z,71.30
2018-09-28T16:53:57.047Z,71.60
2018-09-28T16:56:25.464Z,71.50
2018-09-28T16:58:54.028Z,71.30
2018-09-28T17:01:22.485Z,71.50
2018-09-28T17:03:50.721Z,71.20
2018-09-28T17:06:18.952Z,71.50
2018-09-28T17:08:47.217Z,71.20
2018-09-28T17:11:15.422Z,71.30
2018-09-28T17:13:43.617Z,71.50
2018-09-28T17:16:12.138Z,71.40
2018-09-28T17:18:40.336Z,71.60
2018-09-28T17:21:08.570Z,71.50
2018-09-28T17:23:36.882Z,71.70
2018-09-28T17:26:05.228Z,71.80
2018-09-28T17:28:33.564Z,71.80
2018-09-28T17:31:01.705Z,71.90
2018-09-28T17:33:30.005Z,71.80
2018-09-28T17:35:58.368Z,71.90
2018-09-28T17:38:26.563Z,71.80
2018-09-28T17:40:54.804Z,71.80
2018-09-28T17:43:23.002Z,71.90
2018-09-28T17:45:51.207Z,72.10
2018-09-28T17:48:19.842Z,72.10
2018-09-28T17:50:48.032Z,72.20
2018-09-28T17:53:16.223Z,72.20
2018-09-28T17:55:44.604Z,72.30
2018-09-28T17:58:12.840Z,72.30
2018-09-28T18:00:41.467Z,72.40
2018-09-28T18:03:09.928Z,72.50
2018-09-28T18:05:39.317Z,72.70
2018-09-28T18:10:49.894Z,72.60
2018-09-28T18:13:18.127Z,73.30
2018-09-28T18:15:46.496Z,72.80
2018-09-28T18:18:14.715Z,72.90
2018-09-28T18:20:45.020Z,73.00
2018-09-28T18:23:13.281Z,73.00
2018-09-28T18:25:41.511Z,73.10
2018-09-28T18:28:09.805Z,73.30
2018-09-28T18:30:38.163Z,73.30
2018-09-28T18:33:06.393Z,73.30
2018-09-28T18:35:43.599Z,73.40
2018-09-28T18:38:11.783Z,73.50
2018-09-28T18:40:39.986Z,73.40
2018-09-28T18:43:08.200Z,73.40
2018-09-28T18:45:36.424Z,73.40
2018-09-28T18:48:04.657Z,73.40
2018-09-28T18:50:33.106Z,73.30
2018-09-28T18:53:01.416Z,73.30
2018-09-28T18:55:29.606Z,73.20
2018-09-28T18:58:02.130Z,73.30
2018-09-28T19:00:30.438Z,73.10
2018-09-28T19:03:00.098Z,73.10
2018-09-28T19:05:29.392Z,73.30
2018-09-28T19:07:58.109Z,73.20
2018-09-28T19:10:26.411Z,73.20
2018-09-28T19:12:54.686Z,73.20
2018-09-28T19:15:22.921Z,73.20
2018-09-28T19:17:51.219Z,73.20
2018-09-28T19:20:19.635Z,73.00
2018-09-28T19:22:48.128Z,73.10
2018-09-28T19:25:16.360Z,74.30
2018-09-28T19:27:49.422Z,74.30
2018-09-28T19:30:17.615Z,74.40
2018-09-28T19:32:45.826Z,74.30
2018-09-28T19:35:14.352Z,74.30
2018-09-28T19:37:50.195Z,74.40
2018-09-28T19:40:18.567Z,74.40
2018-09-28T19:42:46.755Z,74.40
2018-09-28T19:45:15.000Z,74.60
2018-09-28T19:47:43.195Z,74.50
2018-09-28T19:50:12.480Z,74.50
2018-09-28T19:52:40.988Z,74.50
2018-09-28T19:55:09.179Z,74.50
2018-09-28T19:57:37.354Z,74.40
2018-09-28T20:00:05.758Z,74.40
2018-09-28T20:02:34.490Z,74.50
2018-09-28T20:05:02.696Z,74.60
2018-09-28T20:07:30.930Z,74.60
2018-09-28T20:09:59.170Z,74.60
2018-09-28T20:12:27.373Z,74.80
2018-09-28T20:14:55.640Z,74.80
2018-09-28T20:17:23.824Z,74.90
2018-09-28T20:20:03.342Z,74.90
2018-09-28T20:22:31.708Z,74.90
2018-09-28T20:24:59.896Z,75.40
2018-09-28T20:27:28.120Z,75.00
2018-09-28T20:29:56.296Z,75.10
2018-09-28T20:32:24.483Z,75.10
2018-09-28T20:34:52.730Z,75.10
2018-09-28T20:37:20.945Z,75.10
2018-09-28T20:39:49.242Z,75.20
2018-09-28T20:42:17.458Z,75.40
2018-09-28T20:44:46.671Z,75.60
2018-09-28T20:47:14.908Z,75.50
2018-09-28T20:49:43.196Z,75.50
2018-09-28T20:52:11.388Z,75.60
2018-09-28T20:54:39.685Z,75.50
2018-09-28T20:57:07.988Z,75.50
2018-09-28T20:59:36.184Z,75.60
2018-09-28T21:02:04.390Z,75.70
2018-09-28T21:04:33.915Z,75.60
2018-09-28T21:07:02.120Z,75.70
2018-09-28T21:09:30.450Z,75.80
2018-09-28T21:11:58.649Z,75.80
2018-09-28T21:14:26.844Z,75.70
2018-09-28T21:16:55.030Z,75.80
2018-09-28T21:19:23.294Z,75.90
2018-09-28T21:21:51.514Z,75.90
2018-09-28T21:24:20.080Z,75.90
2018-09-28T21:26:48.319Z,76.00
2018-09-28T21:29:19.160Z,75.90
2018-09-28T21:31:47.352Z,76.00
2018-09-28T21:34:15.591Z,76.10
2018-09-28T21:36:43.799Z,76.00
2018-09-28T21:39:14.551Z,76.00
2018-09-28T21:41:43.100Z,76.00
2018-09-28T21:44:11.272Z,76.10
2018-09-28T21:46:39.633Z,76.30
2018-09-28T21:49:07.823Z,76.30
2018-09-28T21:51:36.215Z,76.20
2018-09-28T21:54:04.387Z,76.20
2018-09-28T21:56:34.019Z,76.20
2018-09-28T21:59:02.196Z,76.20
2018-09-28T22:01:31.574Z,76.30
2018-09-28T22:03:59.744Z,76.30
2018-09-28T22:06:27.927Z,76.30
2018-09-28T22:08:56.113Z,76.20
2018-09-28T22:11:24.302Z,76.20
2018-09-28T22:13:52.544Z,76.30
2018-09-28T22:16:20.667Z,76.30
2018-09-28T22:18:48.941Z,76.30
2018-09-28T22:21:17.138Z,76.40
2018-09-28T22:23:45.339Z,76.40
2018-09-28T22:26:13.525Z,76.40
2018-09-28T22:28:41.751Z,76.50
2018-09-28T22:31:14.954Z,76.50
2018-09-28T22:33:43.223Z,76.40
2018-09-28T22:36:11.417Z,76.40
2018-09-28T22:38:39.681Z,76.50
2018-09-28T22:41:07.896Z,76.40
2018-09-28T22:43:36.167Z,76.50
2018-09-28T22:46:04.365Z,76.60
2018-09-28T22:48:32.560Z,76.60
2018-09-28T22:51:00.743Z,76.70
2018-09-28T22:53:28.951Z,76.80
2018-09-28T22:55:58.213Z,76.70
2018-09-28T22:58:27.147Z,76.80
2018-09-28T23:00:55.334Z,76.70
2018-09-28T23:03:23.527Z,76.70
2018-09-28T23:05:51.755Z,76.70
2018-09-28T23:08:19.993Z,76.70
2018-09-28T23:10:48.255Z,76.80
2018-09-28T23:13:16.354Z,76.90
2018-09-28T23:15:44.624Z,76.80
2018-09-28T23:18:12.806Z,76.80
2018-09-28T23:20:42.048Z,76.70
2018-09-28T23:23:10.241Z,76.50
2018-09-28T23:25:38.485Z,76.50
2018-09-28T23:28:06.679Z,76.70
2018-09-28T23:30:34.941Z,76.80
2018-09-28T23:33:03.115Z,76.80
2018-09-28T23:35:31.328Z,76.70
2018-09-28T23:37:59.506Z,76.60
2018-09-28T23:40:27.760Z,76.60
2018-09-28T23:42:55.965Z,76.70
2018-09-28T23:45:24.156Z,76.70
2018-09-28T23:47:52.784Z,76.80
2018-09-28T23:50:20.964Z,76.80
2018-09-28T23:52:49.144Z,77.00
2018-09-28T23:55:17.349Z,77.00
2018-09-28T23:57:45.829Z,77.20
